createdAt,value
2017-05-04T00:00:17.596Z,8.80
2017-05-04T00:02:45.532Z,8.70
2017-05-04T00:05:13.828Z,8.70
2017-05-04T00:07:41.785Z,8.60
2017-05-04T00:10:09.314Z,8.60
2017-05-04T00:12:37.245Z,8.60
2017-05-04T00:15:05.196Z,8.60
2017-05-04T00:17:33.140Z,8.60
2017-05-04T00:20:01.063Z,8.60
2017-05-04T00:22:29.019Z,8.60
2017-05-04T00:24:56.953Z,8.60
2017-05-04T00:27:24.884Z,8.60
2017-05-04T00:29:52.840Z,8.60
2017-05-04T00:32:20.761Z,8.60
2017-05-04T00:34:48.744Z,8.50
2017-05-04T00:37:17.070Z,8.40
2017-05-04T00:39:44.999Z,8.40
2017-05-04T00:42:12.928Z,8.30
2017-05-04T00:44:40.887Z,8.30
2017-05-04T00:47:08.852Z,8.20
2017-05-04T00:49:36.789Z,8.20
2017-05-04T00:52:04.724Z,8.20
2017-05-04T00:54:32.686Z,8.20
2017-05-04T00:57:00.607Z,8.20
2017-05-04T00:59:28.540Z,8.20
2017-05-04T01:01:56.414Z,8.20
2017-05-04T01:04:24.714Z,8.20
2017-05-04T01:06:52.248Z,8.20
2017-05-04T01:09:20.591Z,8.20
2017-05-04T01:11:48.524Z,8.10
2017-05-04T01:14:16.418Z,8.10
2017-05-04T01:16:44.408Z,8.10
2017-05-04T01:19:12.336Z,8.00
2017-05-04T01:21:39.867Z,8.10
2017-05-04T01:24:07.450Z,8.00
2017-05-04T01:26:35.377Z,8.00
2017-05-04T01:29:03.307Z,8.00
2017-05-04T01:31:31.275Z,8.00
2017-05-04T01:33:59.204Z,8.00
2017-05-04T01:36:26.731Z,8.10
2017-05-04T01:38:54.735Z,8.20
2017-05-04T01:41:23.039Z,8.30
2017-05-04T01:43:50.576Z,8.30
2017-05-04T01:46:18.916Z,8.40
2017-05-04T01:48:46.915Z,8.40
2017-05-04T01:51:14.451Z,8.40
2017-05-04T01:53:42.455Z,8.50
2017-05-04T01:56:10.387Z,8.50
2017-05-04T01:58:38.328Z,8.50
2017-05-04T02:01:06.302Z,8.60
2017-05-04T02:03:34.232Z,8.60
2017-05-04T02:06:02.532Z,8.60
2017-05-04T02:08:30.484Z,8.70
2017-05-04T02:10:58.796Z,8.80
2017-05-04T02:13:26.344Z,8.80
2017-05-04T02:15:54.290Z,8.70
2017-05-04T02:18:22.223Z,8.70
2017-05-04T02:20:50.156Z,8.80
2017-05-04T02:23:18.112Z,8.80
2017-05-04T02:25:46.420Z,8.80
2017-05-04T02:28:14.659Z,8.80
2017-05-04T02:30:42.217Z,8.80
2017-05-04T02:33:10.515Z,8.90
2017-05-04T02:35:38.021Z,8.90
2017-05-04T02:38:06.037Z,9.00
2017-05-04T02:40:34.343Z,9.00
2017-05-04T02:43:02.290Z,9.00
2017-05-04T02:45:30.620Z,9.00
2017-05-04T02:47:58.566Z,9.10
2017-05-04T02:50:26.488Z,9.00
2017-05-04T02:52:54.044Z,9.00
2017-05-04T02:55:21.977Z,8.90
2017-05-04T02:57:49.918Z,8.90
2017-05-04T03:00:17.873Z,8.80
2017-05-04T03:02:46.182Z,8.80
2017-05-04T03:05:14.111Z,8.70
2017-05-04T03:07:42.832Z,8.80
2017-05-04T03:10:10.759Z,8.80
2017-05-04T03:12:38.715Z,8.80
2017-05-04T03:15:06.672Z,8.90
2017-05-04T03:17:34.604Z,8.80
2017-05-04T03:20:02.548Z,8.80
2017-05-04T03:22:30.107Z,8.90
2017-05-04T03:24:58.427Z,8.80
2017-05-04T03:27:26.369Z,8.70
2017-05-04T03:29:53.922Z,8.80
2017-05-04T03:32:22.228Z,8.70
2017-05-04T03:34:49.780Z,8.70
2017-05-04T03:37:17.756Z,8.60
2017-05-04T03:39:45.732Z,8.50
2017-05-04T03:42:13.655Z,8.60
2017-05-04T03:44:41.224Z,8.60
2017-05-04T03:47:09.163Z,8.60
2017-05-04T03:49:37.091Z,8.60
2017-05-04T03:52:05.044Z,8.60
2017-05-04T03:54:33.383Z,8.60
2017-05-04T03:57:01.316Z,8.60
2017-05-04T03:59:29.271Z,8.60
2017-05-04T04:01:56.803Z,8.60
2017-05-04T04:04:24.759Z,8.60
2017-05-04T04:06:52.719Z,8.60
2017-05-04T04:09:20.652Z,8.60
2017-05-04T04:11:48.588Z,8.70
2017-05-04T04:14:16.152Z,8.70
2017-05-04T04:16:44.092Z,8.60
2017-05-04T04:19:12.027Z,8.60
2017-05-04T04:21:39.982Z,8.60
2017-05-04T04:24:07.911Z,8.60
2017-05-04T04:26:35.844Z,8.60
2017-05-04T04:29:03.803Z,8.60
2017-05-04T04:31:31.735Z,8.60
2017-05-04T04:33:59.676Z,8.70
2017-05-04T04:36:27.237Z,8.70
2017-05-04T04:38:55.180Z,8.80
2017-05-04T04:41:23.106Z,8.80
2017-05-04T04:43:51.073Z,8.90
2017-05-04T04:46:19.004Z,8.90
2017-05-04T04:48:46.936Z,8.90
2017-05-04T04:51:15.261Z,8.90
2017-05-04T04:53:43.192Z,9.00
2017-05-04T04:56:11.124Z,9.00
2017-05-04T04:58:38.679Z,9.00
2017-05-04T05:01:06.616Z,9.00
2017-05-04T05:03:34.558Z,9.00
2017-05-04T05:06:02.884Z,8.90
2017-05-04T05:08:30.817Z,9.00
2017-05-04T05:10:58.752Z,9.00
2017-05-04T05:13:26.714Z,9.10
2017-05-04T05:15:54.639Z,9.10
2017-05-04T05:18:22.576Z,9.10
2017-05-04T05:20:50.903Z,9.20
2017-05-04T05:23:18.835Z,9.20
2017-05-04T05:25:46.778Z,9.10
2017-05-04T05:28:14.736Z,9.10
2017-05-04T05:30:42.685Z,9.10
2017-05-04T05:33:10.212Z,9.10
2017-05-04T05:35:38.175Z,9.10
2017-05-04T05:38:06.123Z,9.20
2017-05-04T05:40:34.423Z,9.30
2017-05-04T05:43:02.342Z,9.40
2017-05-04T05:45:29.925Z,9.40
2017-05-04T05:47:57.455Z,9.40
2017-05-04T05:50:25.419Z,9.60
2017-05-04T05:52:53.347Z,9.60
2017-05-04T05:55:21.655Z,9.60
2017-05-04T05:57:49.622Z,9.70
2017-05-04T06:00:17.550Z,9.80
2017-05-04T06:02:45.484Z,9.90
2017-05-04T06:05:13.447Z,9.90
2017-05-04T06:07:41.383Z,10.10
2017-05-04T06:10:08.951Z,10.10
2017-05-04T06:12:36.912Z,10.10
2017-05-04T06:15:04.859Z,10.10
2017-05-04T06:17:32.796Z,10.30
2017-05-04T06:20:00.757Z,10.40
2017-05-04T06:22:28.694Z,10.40
2017-05-04T06:24:56.629Z,10.50
2017-05-04T06:27:24.582Z,10.60
2017-05-04T06:29:52.523Z,10.70
2017-05-04T06:32:20.096Z,10.70
2017-05-04T06:34:48.040Z,10.90
2017-05-04T06:37:15.975Z,11.00
2017-05-04T06:39:43.932Z,11.00
2017-05-04T06:42:11.871Z,11.00
2017-05-04T06:44:39.824Z,10.90
2017-05-04T06:47:07.788Z,10.90
2017-05-04T06:49:35.336Z,10.90
2017-05-04T06:52:03.644Z,11.00
2017-05-04T06:54:31.202Z,11.00
2017-05-04T06:56:59.150Z,11.00
2017-05-04T06:59:27.088Z,11.00
2017-05-04T07:01:55.049Z,11.00
2017-05-04T07:04:22.984Z,11.00
2017-05-04T07:06:51.034Z,11.20
2017-05-04T07:09:18.994Z,11.40
2017-05-04T07:11:47.299Z,11.30
2017-05-04T07:14:15.259Z,11.20
2017-05-04T07:16:43.200Z,11.30
2017-05-04T07:19:11.136Z,11.30
2017-05-04T07:21:39.108Z,11.50
2017-05-04T07:24:07.056Z,11.50
2017-05-04T07:26:34.984Z,11.60
2017-05-04T07:29:03.382Z,11.80
2017-05-04T07:31:31.676Z,11.90
2017-05-04T07:33:59.238Z,12.00
2017-05-04T07:36:27.200Z,12.30
2017-05-04T07:38:54.745Z,12.30
2017-05-04T07:41:23.047Z,12.30
2017-05-04T07:43:51.008Z,12.30
2017-05-04T07:46:18.944Z,12.40
2017-05-04T07:48:46.893Z,12.30
2017-05-04T07:51:14.867Z,12.10
2017-05-04T07:53:42.818Z,12.10
2017-05-04T07:56:10.364Z,12.10
2017-05-04T07:58:38.327Z,11.90
2017-05-04T08:01:06.695Z,11.80
2017-05-04T08:03:34.631Z,12.10
2017-05-04T08:06:02.629Z,12.30
2017-05-04T08:08:30.163Z,12.30
2017-05-04T08:10:58.099Z,12.50
2017-05-04T08:13:26.063Z,12.70
2017-05-04T08:15:53.611Z,12.70
2017-05-04T08:18:21.153Z,12.70
2017-05-04T08:20:49.111Z,12.80
2017-05-04T08:23:17.447Z,12.70
2017-05-04T08:25:45.396Z,12.50
2017-05-04T08:28:12.947Z,12.60
2017-05-04T08:30:40.891Z,12.70
2017-05-04T08:33:08.445Z,12.70
2017-05-04T08:35:36.382Z,12.90
2017-05-04T08:38:04.341Z,13.00
2017-05-04T08:40:32.297Z,13.20
2017-05-04T08:43:00.244Z,13.10
2017-05-04T08:45:28.195Z,12.80
2017-05-04T08:47:56.504Z,12.80
2017-05-04T08:50:24.459Z,12.80
2017-05-04T08:52:52.403Z,12.80
2017-05-04T08:55:20.343Z,12.80
2017-05-04T08:57:48.295Z,12.80
2017-05-04T09:00:16.238Z,12.90
2017-05-04T09:02:44.544Z,13.10
2017-05-04T09:05:12.508Z,13.40
2017-05-04T09:07:40.477Z,13.20
2017-05-04T09:10:08.427Z,13.30
2017-05-04T09:12:36.403Z,13.20
2017-05-04T09:15:04.339Z,13.10
2017-05-04T09:17:32.308Z,13.20
2017-05-04T09:19:59.853Z,13.20
2017-05-04T09:22:27.790Z,13.70
2017-05-04T09:24:55.753Z,13.70
2017-05-04T09:27:23.687Z,13.80
2017-05-04T09:29:51.632Z,14.00
2017-05-04T09:32:19.588Z,14.10
2017-05-04T09:34:47.527Z,14.10
2017-05-04T09:37:15.468Z,14.10
2017-05-04T09:39:43.799Z,14.10
2017-05-04T09:42:11.760Z,14.30
2017-05-04T09:44:39.695Z,14.40
2017-05-04T09:47:07.627Z,14.20
2017-05-04T09:49:35.592Z,14.00
2017-05-04T09:52:03.523Z,13.80
2017-05-04T09:54:31.466Z,13.90
2017-05-04T09:56:59.815Z,14.00
2017-05-04T09:59:27.767Z,14.30
2017-05-04T10:01:55.707Z,14.50
2017-05-04T10:04:23.697Z,14.40
2017-05-04T10:06:51.623Z,14.50
2017-05-04T10:09:19.563Z,14.60
2017-05-04T10:11:47.519Z,14.70
2017-05-04T10:14:15.472Z,14.50
2017-05-04T10:16:43.006Z,14.50
2017-05-04T10:19:10.568Z,14.40
2017-05-04T10:21:38.879Z,14.30
2017-05-04T10:24:06.812Z,14.00
2017-05-04T10:26:35.140Z,13.60
2017-05-04T10:29:03.103Z,13.80
2017-05-04T10:31:30.651Z,13.80
2017-05-04T10:33:58.621Z,14.00
2017-05-04T10:36:26.168Z,14.00
2017-05-04T10:38:54.108Z,14.50
2017-05-04T10:41:21.668Z,14.60
2017-05-04T10:43:49.603Z,14.60
2017-05-04T10:46:17.540Z,14.10
2017-05-04T10:48:45.496Z,14.00
2017-05-04T10:51:13.031Z,13.90
2017-05-04T10:53:40.978Z,14.20
2017-05-04T10:56:08.945Z,14.20
2017-05-04T10:58:36.480Z,14.20
2017-05-04T11:01:04.415Z,13.80
2017-05-04T11:03:32.756Z,13.90
2017-05-04T11:06:00.687Z,14.40
2017-05-04T11:08:28.627Z,14.60
2017-05-04T11:10:56.583Z,14.60
2017-05-04T11:13:24.132Z,14.60
2017-05-04T11:15:52.073Z,14.70
2017-05-04T11:18:20.031Z,14.20
2017-05-04T11:20:47.967Z,13.90
2017-05-04T11:23:15.905Z,13.80
2017-05-04T11:25:43.860Z,14.10
2017-05-04T11:28:11.808Z,14.30
2017-05-04T11:30:39.748Z,14.40
2017-05-04T11:33:07.698Z,14.50
2017-05-04T11:35:35.631Z,14.60
2017-05-04T11:38:03.559Z,14.80
2017-05-04T11:40:31.892Z,14.80
2017-05-04T11:42:59.436Z,14.80
2017-05-04T11:45:27.363Z,15.10
2017-05-04T11:47:55.320Z,15.10
2017-05-04T11:50:23.260Z,15.20
2017-05-04T11:52:51.185Z,15.20
2017-05-04T11:55:19.519Z,15.20
2017-05-04T11:57:47.456Z,15.20
2017-05-04T12:00:15.395Z,15.10
2017-05-04T12:02:43.351Z,15.10
2017-05-04T12:05:11.308Z,15.10
2017-05-04T12:07:39.254Z,15.10
2017-05-04T12:10:07.188Z,15.10
2017-05-04T12:12:34.728Z,15.10
2017-05-04T12:15:02.708Z,15.00
2017-05-04T12:17:30.648Z,15.30
2017-05-04T12:19:58.584Z,15.40
2017-05-04T12:22:26.135Z,15.40
2017-05-04T12:24:53.675Z,15.50
2017-05-04T12:27:21.249Z,15.60
2017-05-04T12:29:49.562Z,15.60
2017-05-04T12:32:17.127Z,15.60
2017-05-04T12:34:45.060Z,15.50
2017-05-04T12:37:12.987Z,15.40
2017-05-04T12:39:40.957Z,15.10
2017-05-04T12:42:08.883Z,14.80
2017-05-04T12:44:36.825Z,14.60
2017-05-04T12:47:05.155Z,14.20
2017-05-04T12:49:33.087Z,14.10
2017-05-04T12:52:01.032Z,14.00
2017-05-04T12:54:28.995Z,13.90
2017-05-04T12:56:56.567Z,13.90
2017-05-04T12:59:24.495Z,13.70
2017-05-04T13:01:52.457Z,13.70
2017-05-04T13:04:20.026Z,13.70
2017-05-04T13:06:47.969Z,13.50
2017-05-04T13:09:15.924Z,13.40
2017-05-04T13:11:43.482Z,13.40
2017-05-04T13:14:11.019Z,13.30
2017-05-04T13:16:38.956Z,13.20
2017-05-04T13:19:06.911Z,13.10
2017-05-04T13:21:34.456Z,13.10
2017-05-04T13:24:02.382Z,13.10
2017-05-04T13:26:30.340Z,13.10
2017-05-04T13:28:58.275Z,13.10
2017-05-04T13:31:26.211Z,13.10
2017-05-04T13:33:54.543Z,13.10
2017-05-04T13:36:22.483Z,13.20
2017-05-04T13:38:50.411Z,13.10
2017-05-04T13:41:17.994Z,13.20
2017-05-04T13:43:46.286Z,13.10
2017-05-04T13:46:14.219Z,13.10
2017-05-04T13:48:42.191Z,13.00
2017-05-04T13:51:10.128Z,13.00
2017-05-04T13:53:38.064Z,13.10
2017-05-04T13:56:06.024Z,13.10
2017-05-04T13:58:34.335Z,13.10
2017-05-04T14:01:02.293Z,13.10
2017-05-04T14:03:30.255Z,13.20
2017-05-04T14:05:58.195Z,13.20
2017-05-04T14:08:26.152Z,13.20
2017-05-04T14:10:54.455Z,13.30
2017-05-04T14:13:22.755Z,13.30
2017-05-04T14:15:50.700Z,13.40
2017-05-04T14:18:18.669Z,13.50
2017-05-04T14:20:46.611Z,13.60
2017-05-04T14:23:14.559Z,13.60
2017-05-04T14:25:42.524Z,13.70
2017-05-04T14:28:10.100Z,13.70
2017-05-04T14:30:37.660Z,13.80
2017-05-04T14:33:05.588Z,14.00
2017-05-04T14:35:33.153Z,14.00
2017-05-04T14:38:01.088Z,14.20
2017-05-04T14:40:28.639Z,14.20
2017-05-04T14:42:56.599Z,14.60
2017-05-04T14:45:24.537Z,14.70
2017-05-04T14:47:52.476Z,14.90
2017-05-04T14:50:20.803Z,14.90
2017-05-04T14:52:48.751Z,15.10
2017-05-04T14:55:16.688Z,15.00
2017-05-04T14:57:44.683Z,15.00
2017-05-04T15:00:12.231Z,15.00
2017-05-04T15:02:40.531Z,14.90
2017-05-04T15:05:08.467Z,14.70
2017-05-04T15:07:36.422Z,14.70
2017-05-04T15:10:04.348Z,14.70
2017-05-04T15:12:33.167Z,14.70
2017-05-04T15:15:01.100Z,14.80
2017-05-04T15:17:29.035Z,15.00
2017-05-04T15:19:56.596Z,15.00
2017-05-04T15:22:24.536Z,15.50
2017-05-04T15:24:52.464Z,15.60
2017-05-04T15:27:20.419Z,15.70
2017-05-04T15:29:47.959Z,15.70
2017-05-04T15:32:15.896Z,15.40
2017-05-04T15:34:43.847Z,15.30
2017-05-04T15:37:11.392Z,15.30
2017-05-04T15:39:39.352Z,15.50
2017-05-04T15:42:07.659Z,15.50
2017-05-04T15:44:35.611Z,15.70
2017-05-04T15:47:03.572Z,15.80
2017-05-04T15:49:31.870Z,16.10
2017-05-04T15:51:59.856Z,16.20
2017-05-04T15:54:27.794Z,16.30
2017-05-04T15:56:56.118Z,16.30
2017-05-04T15:59:24.140Z,16.40
2017-05-04T16:01:52.450Z,17.10
2017-05-04T16:04:20.387Z,17.20
2017-05-04T16:06:47.968Z,17.20
2017-05-04T16:09:15.915Z,22.80
2017-05-04T16:11:44.220Z,25.10
2017-05-04T16:14:11.784Z,25.10
2017-05-04T16:16:39.711Z,21.30
2017-05-04T16:19:07.639Z,19.50
2017-05-04T16:21:35.220Z,19.50
2017-05-04T16:24:03.157Z,17.30
2017-05-04T16:26:31.085Z,16.60
2017-05-04T16:28:59.037Z,16.00
2017-05-04T16:31:26.967Z,15.70
2017-05-04T16:33:54.895Z,15.30
2017-05-04T16:36:22.852Z,15.20
2017-05-04T16:38:50.786Z,15.10
2017-05-04T16:41:18.735Z,15.00
2017-05-04T16:43:46.697Z,15.00
2017-05-04T16:46:15.003Z,15.00
2017-05-04T16:48:42.955Z,15.00
2017-05-04T16:51:10.516Z,14.90
2017-05-04T16:53:38.447Z,14.80
2017-05-04T16:56:06.392Z,14.70
2017-05-04T16:58:34.355Z,14.60
2017-05-04T17:01:02.317Z,14.50
2017-05-04T17:03:29.860Z,14.50
2017-05-04T17:05:57.788Z,14.50
2017-05-04T17:08:25.776Z,14.50
2017-05-04T17:10:53.336Z,14.50
2017-05-04T17:13:21.666Z,14.30
2017-05-04T17:15:49.611Z,14.20
2017-05-04T17:18:17.566Z,14.20
2017-05-04T17:20:45.556Z,14.20
2017-05-04T17:23:13.521Z,14.10
2017-05-04T17:25:41.076Z,14.10
2017-05-04T17:28:09.194Z,14.10
2017-05-04T17:30:37.349Z,14.00
2017-05-04T17:33:05.373Z,13.90
2017-05-04T17:35:33.037Z,14.00
2017-05-04T17:38:00.679Z,13.90
2017-05-04T17:40:28.539Z,13.60
2017-05-04T17:42:56.883Z,13.10
2017-05-04T17:45:24.644Z,13.10
2017-05-04T17:47:52.316Z,12.60
2017-05-04T17:50:20.398Z,12.00
2017-05-04T17:52:48.358Z,11.90
2017-05-04T17:55:16.126Z,11.90
2017-05-04T17:57:44.284Z,11.70
2017-05-04T18:00:12.351Z,11.30
2017-05-04T18:02:40.377Z,11.10
2017-05-04T18:05:08.698Z,10.80
2017-05-04T18:07:36.994Z,10.60
2017-05-04T18:10:05.506Z,10.50
2017-05-04T18:12:34.627Z,10.30
2017-05-04T18:15:03.491Z,10.30
2017-05-04T18:17:32.381Z,10.40
2017-05-04T18:20:00.996Z,10.40
2017-05-04T18:22:29.920Z,10.50
2017-05-04T18:24:58.864Z,10.50
2017-05-04T18:27:27.741Z,10.40
2017-05-04T18:29:56.817Z,10.40
2017-05-04T18:32:25.934Z,10.40
2017-05-04T18:34:54.848Z,10.40
2017-05-04T18:37:23.739Z,10.50
2017-05-04T18:39:52.712Z,10.60
2017-05-04T18:42:21.965Z,10.60
2017-05-04T18:44:50.904Z,10.60
2017-05-04T18:47:19.835Z,10.60
2017-05-04T18:49:48.928Z,10.60
2017-05-04T18:52:17.966Z,10.60
2017-05-04T18:54:47.324Z,10.60
2017-05-04T18:57:16.412Z,10.60
2017-05-04T18:59:45.332Z,10.60
2017-05-04T19:02:14.601Z,10.60
2017-05-04T19:04:43.666Z,10.60
2017-05-04T19:07:12.951Z,10.60
2017-05-04T19:09:42.648Z,10.70
2017-05-04T19:12:11.925Z,10.70
2017-05-04T19:14:41.998Z,10.70
2017-05-04T19:17:11.190Z,10.60
2017-05-04T19:19:40.639Z,10.70
2017-05-04T19:22:09.950Z,10.70
2017-05-04T19:24:39.274Z,10.70
2017-05-04T19:27:08.351Z,10.70
2017-05-04T19:29:37.319Z,10.70
2017-05-04T19:32:06.272Z,10.70
2017-05-04T19:34:35.938Z,10.70
2017-05-04T19:37:05.192Z,10.70
2017-05-04T19:39:34.697Z,10.70
2017-05-04T19:42:04.008Z,10.70
2017-05-04T19:44:33.273Z,10.70
2017-05-04T19:47:02.222Z,10.70
2017-05-04T19:49:31.298Z,10.60
2017-05-04T19:52:00.693Z,10.60
2017-05-04T19:54:30.111Z,10.60
2017-05-04T19:56:59.502Z,10.60
2017-05-04T19:59:28.823Z,10.50
2017-05-04T20:01:57.796Z,10.50
2017-05-04T20:04:27.247Z,10.50
2017-05-04T20:06:56.314Z,10.50
2017-05-04T20:09:25.301Z,10.40
2017-05-04T20:11:54.608Z,10.50
2017-05-04T20:14:23.750Z,10.50
2017-05-04T20:16:52.942Z,10.50
2017-05-04T20:19:21.996Z,10.50
2017-05-04T20:21:50.867Z,10.50
2017-05-04T20:24:19.451Z,10.50
2017-05-04T20:26:47.956Z,10.50
2017-05-04T20:29:17.711Z,10.50
2017-05-04T20:31:46.600Z,10.50
2017-05-04T20:34:15.545Z,10.50
2017-05-04T20:36:44.457Z,10.50
2017-05-04T20:39:12.822Z,10.50
2017-05-04T20:41:41.827Z,10.40
2017-05-04T20:44:09.716Z,10.50
2017-05-04T20:46:38.048Z,10.40
2017-05-04T20:49:06.452Z,10.40
2017-05-04T20:51:34.818Z,10.40
2017-05-04T20:54:03.041Z,10.40
2017-05-04T20:56:30.850Z,10.40
2017-05-04T20:58:59.162Z,10.40
2017-05-04T21:01:27.268Z,10.40
2017-05-04T21:03:55.202Z,10.30
2017-05-04T21:06:23.140Z,10.20
2017-05-04T21:08:51.463Z,10.20
2017-05-04T21:11:19.420Z,10.10
2017-05-04T21:13:47.352Z,10.10
2017-05-04T21:16:15.679Z,10.10
2017-05-04T21:18:43.620Z,10.10
2017-05-04T21:21:11.184Z,10.10
2017-05-04T21:23:39.140Z,10.10
2017-05-04T21:26:07.459Z,10.10
2017-05-04T21:28:35.416Z,10.00
2017-05-04T21:31:03.351Z,10.00
2017-05-04T21:33:30.911Z,10.10
2017-05-04T21:35:59.216Z,10.00
2017-05-04T21:38:27.140Z,9.90
2017-05-04T21:40:56.630Z,10.00
2017-05-04T21:43:24.567Z,10.00
2017-05-04T21:45:52.503Z,10.00
2017-05-04T21:48:20.076Z,10.00
2017-05-04T21:50:48.031Z,10.00
2017-05-04T21:53:16.369Z,10.00
2017-05-04T21:55:44.303Z,10.00
2017-05-04T21:58:12.266Z,10.00
2017-05-04T22:00:40.563Z,9.90
2017-05-04T22:03:08.097Z,9.90
2017-05-04T22:05:36.421Z,9.80
2017-05-04T22:08:03.987Z,9.80
2017-05-04T22:10:31.917Z,9.70
2017-05-04T22:12:59.839Z,9.60
2017-05-04T22:15:27.807Z,9.60
2017-05-04T22:17:55.736Z,9.60
2017-05-04T22:20:23.659Z,9.60
2017-05-04T22:22:51.620Z,9.60
2017-05-04T22:25:19.568Z,9.50
2017-05-04T22:27:47.496Z,9.60
2017-05-04T22:30:15.053Z,9.60
2017-05-04T22:32:43.356Z,9.70
2017-05-04T22:35:10.893Z,9.70
2017-05-04T22:37:39.207Z,9.80
2017-05-04T22:40:07.144Z,9.80
2017-05-04T22:42:34.714Z,9.90
2017-05-04T22:45:02.651Z,9.90
2017-05-04T22:47:30.584Z,9.90
2017-05-04T22:49:58.520Z,10.00
2017-05-04T22:52:26.485Z,10.00
2017-05-04T22:54:54.779Z,10.00
2017-05-04T22:57:22.720Z,10.00
2017-05-04T22:59:51.048Z,10.10
2017-05-04T23:02:18.983Z,10.10
2017-05-04T23:04:46.911Z,10.10
2017-05-04T23:07:14.871Z,10.10
2017-05-04T23:09:42.802Z,10.00
2017-05-04T23:12:10.736Z,10.00
2017-05-04T23:14:38.295Z,10.00
2017-05-04T23:17:06.232Z,9.90
2017-05-04T23:19:33.759Z,9.90
2017-05-04T23:22:01.324Z,9.90
2017-05-04T23:24:29.263Z,9.70
2017-05-04T23:26:57.191Z,9.70
2017-05-04T23:29:25.175Z,9.60
2017-05-04T23:31:53.098Z,9.60
2017-05-04T23:34:21.081Z,9.60
2017-05-04T23:36:49.438Z,9.50
2017-05-04T23:39:17.374Z,9.40
2017-05-04T23:41:45.331Z,9.40
2017-05-04T23:44:13.288Z,9.40
2017-05-04T23:46:41.216Z,9.30
2017-05-04T23:49:09.520Z,9.30
2017-05-04T23:51:37.470Z,9.30
2017-05-04T23:54:06.787Z,9.20
2017-05-04T23:56:34.719Z,9.30
2017-05-04T23:59:02.657Z,9.30
